createdAt,value
2022-08-08T00:02:03.265Z,91.10
2022-08-08T00:07:20.446Z,91.20
2022-08-08T00:12:35.742Z,91.40
2022-08-08T00:18:05.572Z,91.50
2022-08-08T00:23:20.468Z,91.70
2022-08-08T00:28:35.211Z,91.70
2022-08-08T00:34:17.367Z,91.90
2022-08-08T00:41:07.101Z,92.00
2022-08-08T00:45:21.405Z,92.20
2022-08-08T00:50:53.431Z,92.20
2022-08-08T00:56:16.532Z,92.40
2022-08-08T01:01:38.340Z,92.60
2022-08-08T01:07:23.651Z,92.70
2022-08-08T01:12:52.105Z,92.80
2022-08-08T01:18:16.327Z,92.90
2022-08-08T01:24:05.581Z,92.90
2022-08-08T01:29:59.153Z,93.10
2022-08-08T01:35:15.466Z,93.20
2022-08-08T01:40:36.988Z,93.30
2022-08-08T01:45:56.190Z,93.50
2022-08-08T01:52:43.709Z,93.60
2022-08-08T01:58:11.580Z,93.80
2022-08-08T02:03:57.693Z,93.90
2022-08-08T02:08:59.432Z,94.10
2022-08-08T02:14:25.737Z,94.70
2022-08-08T02:19:57.442Z,95.20
2022-08-08T02:25:47.264Z,95.20
2022-08-08T02:31:04.620Z,95.50
2022-08-08T02:36:28.594Z,95.40
2022-08-08T02:42:10.649Z,95.60
2022-08-08T02:47:37.952Z,95.60
2022-08-08T02:52:43.431Z,95.80
2022-08-08T02:58:01.838Z,96.10
2022-08-08T03:05:05.455Z,96.30
2022-08-08T03:09:10.048Z,96.50
2022-08-08T03:15:58.629Z,96.50
2022-08-08T03:20:03.485Z,96.80
2022-08-08T03:25:09.235Z,96.90
2022-08-08T03:30:23.113Z,97.50
2022-08-08T03:35:27.051Z,97.70
2022-08-08T03:40:35.317Z,97.50
2022-08-08T03:46:05.706Z,97.50
2022-08-08T03:51:00.779Z,97.80
2022-08-08T03:56:04.593Z,97.60
2022-08-08T04:01:22.945Z,97.70
2022-08-08T04:06:29.421Z,98.00
2022-08-08T04:11:32.841Z,98.20
2022-08-08T04:16:49.992Z,98.30
2022-08-08T04:21:51.723Z,98.20
2022-08-08T04:26:57.967Z,98.20
2022-08-08T04:32:00.775Z,98.50
2022-08-08T04:37:03.939Z,98.50
2022-08-08T04:42:06.193Z,99.20
2022-08-08T04:47:13.090Z,98.70
2022-08-08T04:52:14.812Z,98.80
2022-08-08T04:57:16.584Z,98.80
2022-08-08T05:02:20.271Z,98.90
2022-08-08T05:07:24.382Z,98.80
2022-08-08T05:12:34.886Z,98.90
2022-08-08T05:17:54.240Z,98.90
2022-08-08T05:22:56.459Z,98.50
2022-08-08T05:27:59.646Z,98.80
2022-08-08T05:33:03.336Z,98.20
2022-08-08T05:38:30.471Z,98.30
2022-08-08T05:43:39.473Z,98.10
2022-08-08T05:48:54.927Z,98.30
2022-08-08T05:54:26.840Z,97.90
2022-08-08T05:59:59.690Z,97.90
2022-08-08T06:04:43.631Z,97.60
2022-08-08T06:10:00.491Z,97.50
2022-08-08T06:15:07.139Z,97.40
2022-08-08T06:20:11.804Z,97.10
2022-08-08T06:25:14.082Z,97.00
2022-08-08T06:30:20.334Z,97.10
2022-08-08T06:36:08.001Z,96.70
2022-08-08T06:41:00.879Z,96.70
2022-08-08T06:46:09.049Z,96.90
2022-08-08T06:51:14.602Z,96.60
2022-08-08T06:56:19.323Z,96.30
2022-08-08T07:02:17.738Z,96.60
2022-08-08T07:07:00.762Z,96.20
2022-08-08T07:12:25.050Z,96.10
2022-08-08T07:18:02.087Z,95.80
2022-08-08T07:23:23.547Z,95.60
2022-08-08T07:28:31.565Z,95.70
2022-08-08T07:33:37.642Z,95.10
2022-08-08T07:38:41.301Z,94.80
2022-08-08T07:43:53.492Z,94.30
2022-08-08T07:48:55.445Z,93.90
2022-08-08T07:54:24.192Z,93.20
2022-08-08T07:59:49.375Z,93.00
2022-08-08T08:04:56.272Z,93.40
2022-08-08T08:09:58.818Z,93.50
2022-08-08T08:15:06.754Z,93.50
2022-08-08T08:20:10.827Z,93.50
2022-08-08T08:25:12.565Z,92.80
2022-08-08T08:30:19.204Z,91.90
2022-08-08T08:35:29.691Z,92.30
2022-08-08T08:40:48.631Z,91.90
2022-08-08T08:45:57.108Z,91.00
2022-08-08T08:51:01.869Z,91.00
2022-08-08T08:56:06.927Z,89.90
2022-08-08T09:01:14.760Z,90.00
2022-08-08T09:06:33.114Z,89.80
2022-08-08T09:11:47.022Z,89.70
2022-08-08T09:16:51.688Z,86.90
2022-08-08T09:22:05.459Z,86.20
2022-08-08T09:27:20.058Z,85.40
2022-08-08T09:32:37.049Z,84.50
2022-08-08T09:38:01.121Z,84.20
2022-08-08T09:43:16.757Z,83.90
2022-08-08T09:48:35.749Z,84.30
2022-08-08T09:53:56.578Z,84.80
2022-08-08T09:59:40.430Z,83.20
2022-08-08T10:04:38.544Z,82.40
2022-08-08T10:10:00.278Z,82.20
2022-08-08T10:15:17.893Z,82.50
2022-08-08T10:20:27.900Z,82.10
2022-08-08T10:25:56.088Z,80.80
2022-08-08T10:31:01.758Z,80.00
2022-08-08T10:36:20.854Z,81.80
2022-08-08T10:41:35.748Z,81.30
2022-08-08T10:46:49.771Z,79.80
2022-08-08T10:51:51.732Z,80.00
2022-08-08T10:57:01.002Z,80.30
2022-08-08T11:02:06.502Z,79.90
2022-08-08T11:07:38.997Z,79.60
2022-08-08T11:12:38.446Z,78.60
2022-08-08T11:17:59.513Z,78.50
2022-08-08T11:23:05.773Z,78.30
2022-08-08T11:28:11.296Z,77.00
2022-08-08T11:33:13.943Z,77.60
2022-08-08T11:38:36.036Z,77.50
2022-08-08T11:43:42.103Z,76.50
2022-08-08T11:48:47.547Z,77.00
2022-08-08T11:53:59.083Z,77.30
2022-08-08T11:59:09.552Z,76.30
2022-08-08T12:04:11.727Z,76.90
2022-08-08T12:09:17.401Z,76.40
2022-08-08T12:14:28.858Z,75.50
2022-08-08T12:19:37.777Z,75.80
2022-08-08T12:25:56.749Z,75.40
2022-08-08T12:31:09.141Z,74.20
2022-08-08T12:36:16.364Z,74.90
2022-08-08T12:41:35.054Z,74.60
2022-08-08T12:46:59.405Z,73.90
2022-08-08T12:52:05.200Z,74.50
2022-08-08T12:57:29.013Z,73.50
2022-08-08T13:02:35.838Z,74.00
2022-08-08T13:08:04.265Z,72.80
2022-08-08T13:13:05.833Z,72.00
2022-08-08T13:18:13.517Z,72.10
2022-08-08T13:23:36.794Z,72.10
2022-08-08T13:28:42.170Z,72.40
2022-08-08T13:33:49.989Z,71.80
2022-08-08T13:38:52.129Z,71.90
2022-08-08T13:43:54.365Z,71.30
2022-08-08T13:49:11.282Z,70.60
2022-08-08T13:54:22.880Z,69.70
2022-08-08T13:59:35.401Z,70.70
2022-08-08T14:04:55.756Z,69.40
2022-08-08T14:10:12.004Z,70.30
2022-08-08T14:15:31.495Z,71.60
2022-08-08T14:20:57.578Z,70.00
2022-08-08T14:26:10.546Z,67.90
2022-08-08T14:31:20.641Z,68.10
2022-08-08T14:36:40.501Z,67.30
2022-08-08T14:41:54.148Z,67.20
2022-08-08T14:47:01.096Z,68.50
2022-08-08T14:52:09.399Z,68.40
2022-08-08T14:57:13.159Z,66.20
2022-08-08T15:02:30.631Z,66.00
2022-08-08T15:07:39.293Z,65.60
2022-08-08T15:12:44.018Z,65.50
2022-08-08T15:17:48.425Z,67.50
2022-08-08T15:22:50.167Z,68.00
2022-08-08T15:28:04.262Z,68.40
2022-08-08T15:33:35.028Z,68.20
2022-08-08T15:38:36.377Z,67.50
2022-08-08T15:43:42.399Z,68.00
2022-08-08T15:49:04.138Z,65.90
2022-08-08T15:54:06.167Z,65.40
2022-08-08T15:59:20.447Z,66.70
2022-08-08T16:04:42.603Z,66.10
2022-08-08T16:13:05.474Z,66.40
2022-08-08T16:15:07.326Z,66.40
2022-08-08T16:20:13.344Z,65.00
2022-08-08T16:25:15.893Z,65.60
2022-08-08T16:30:32.548Z,66.60
2022-08-08T16:35:38.548Z,68.10
2022-08-08T16:40:40.653Z,69.20
2022-08-08T16:46:36.825Z,68.80
2022-08-08T16:51:04.405Z,68.50
2022-08-08T16:56:14.081Z,67.90
2022-08-08T17:01:16.887Z,66.90
2022-08-08T17:06:39.522Z,66.70
2022-08-08T17:11:48.617Z,65.70
2022-08-08T17:16:58.542Z,65.60
2022-08-08T17:22:01.923Z,66.30
2022-08-08T17:27:04.734Z,65.90
2022-08-08T17:32:07.932Z,66.50
2022-08-08T17:37:12.829Z,66.30
2022-08-08T17:42:19.839Z,67.10
2022-08-08T17:47:24.315Z,67.60
2022-08-08T17:52:31.082Z,67.80
2022-08-08T17:57:35.998Z,68.80
2022-08-08T18:02:39.351Z,69.80
2022-08-08T18:08:03.172Z,69.40
2022-08-08T18:13:04.093Z,70.10
2022-08-08T18:18:28.379Z,70.00
2022-08-08T18:23:31.037Z,70.80
2022-08-08T18:28:34.870Z,71.10
2022-08-08T18:34:25.708Z,72.00
2022-08-08T18:39:28.563Z,72.20
2022-08-08T18:44:34.482Z,73.30
2022-08-08T18:49:40.928Z,74.00
2022-08-08T18:54:59.633Z,74.50
2022-08-08T19:00:03.793Z,75.70
2022-08-08T19:05:06.033Z,76.70
2022-08-08T19:10:14.264Z,77.80
2022-08-08T19:15:23.954Z,78.50
2022-08-08T19:20:27.976Z,79.10
2022-08-08T19:26:01.701Z,79.40
2022-08-08T19:31:03.589Z,79.30
2022-08-08T19:36:09.350Z,81.40
2022-08-08T19:41:21.115Z,82.30
2022-08-08T19:46:23.616Z,82.10
2022-08-08T19:51:43.305Z,82.80
2022-08-08T19:56:48.752Z,84.80
2022-08-08T20:02:03.149Z,85.50
2022-08-08T20:08:28.278Z,86.40
2022-08-08T20:12:36.967Z,86.60
2022-08-08T20:17:40.612Z,86.10
2022-08-08T20:22:43.501Z,86.00
2022-08-08T20:27:49.389Z,86.90
2022-08-08T20:32:52.594Z,87.40
2022-08-08T20:37:55.331Z,87.80
2022-08-08T20:42:57.191Z,88.00
2022-08-08T20:48:08.145Z,88.80
2022-08-08T20:54:00.959Z,89.30
2022-08-08T20:58:40.723Z,89.70
2022-08-08T21:04:00.275Z,90.00
2022-08-08T21:09:04.024Z,90.40
2022-08-08T21:14:07.613Z,90.40
2022-08-08T21:19:10.807Z,91.20
2022-08-08T21:24:25.542Z,91.00
2022-08-08T21:30:03.885Z,91.40
2022-08-08T21:34:50.455Z,91.60
2022-08-08T21:39:58.422Z,91.60
2022-08-08T21:45:20.960Z,91.60
2022-08-08T21:50:23.703Z,91.60
2022-08-08T21:56:20.148Z,91.90
2022-08-08T22:00:48.157Z,91.90
2022-08-08T22:05:58.241Z,92.00
2022-08-08T22:11:00.189Z,92.00
2022-08-08T22:16:04.145Z,92.00
2022-08-08T22:21:10.688Z,92.50
2022-08-08T22:26:30.384Z,93.10
2022-08-08T22:31:35.194Z,92.80
2022-08-08T22:36:37.695Z,92.90
2022-08-08T22:41:40.875Z,92.10
2022-08-08T22:46:42.595Z,92.40
2022-08-08T22:51:47.873Z,92.10
2022-08-08T22:56:50.126Z,92.20
2022-08-08T23:02:01.750Z,93.00
2022-08-08T23:07:05.823Z,93.40
2022-08-08T23:12:28.232Z,93.60
2022-08-08T23:17:30.040Z,92.00
2022-08-08T23:22:32.129Z,91.80
2022-08-08T23:27:46.474Z,91.70
2022-08-08T23:32:50.313Z,91.90
2022-08-08T23:38:01.192Z,91.80
2022-08-08T23:43:04.574Z,92.00
2022-08-08T23:49:07.122Z,92.10
2022-08-08T23:53:55.885Z,92.20
2022-08-08T23:58:50.090Z,92.20
